createdAt,value
2022-10-13T00:00:50.855Z,90.58
2022-10-13T00:03:53.613Z,90.59
2022-10-13T00:06:55.954Z,89.32
2022-10-13T00:10:01.800Z,87.89
2022-10-13T00:13:05.024Z,87.56
2022-10-13T00:16:07.880Z,87.83
2022-10-13T00:19:14.888Z,89.25
2022-10-13T00:22:17.697Z,90.11
2022-10-13T00:25:21.722Z,90.68
2022-10-13T00:28:24.738Z,90.62
2022-10-13T00:31:30.209Z,89.92
2022-10-13T00:34:32.827Z,90.04
2022-10-13T00:37:35.279Z,90.34
2022-10-13T00:40:56.076Z,91.87
2022-10-13T00:44:04.805Z,92.50
2022-10-13T00:47:09.885Z,91.91
2022-10-13T00:50:16.126Z,91.86
2022-10-13T00:53:26.347Z,91.81
2022-10-13T00:56:29.635Z,91.54
2022-10-13T00:59:32.311Z,90.67
2022-10-13T01:02:37.164Z,91.33
2022-10-13T01:05:41.361Z,90.93
2022-10-13T01:08:43.913Z,91.25
2022-10-13T01:12:11.950Z,90.30
2022-10-13T01:15:29.222Z,92.70
2022-10-13T01:18:49.978Z,92.88
2022-10-13T01:22:20.416Z,91.67
2022-10-13T01:25:43.613Z,91.48
2022-10-13T01:29:12.075Z,91.88
2022-10-13T01:32:44.693Z,90.89
2022-10-13T01:35:50.588Z,88.82
2022-10-13T01:39:16.917Z,88.90
2022-10-13T01:42:33.570Z,89.34
2022-10-13T01:45:49.609Z,89.14
2022-10-13T01:48:54.638Z,89.45
2022-10-13T01:52:00.143Z,90.01
2022-10-13T01:55:11.431Z,91.12
2022-10-13T01:58:14.100Z,91.81
2022-10-13T02:01:25.730Z,92.22
2022-10-13T02:04:38.253Z,91.97
2022-10-13T02:07:47.776Z,91.37
2022-10-13T02:11:05.299Z,92.15
2022-10-13T02:14:17.366Z,91.52
2022-10-13T02:17:20.281Z,90.96
2022-10-13T02:20:23.469Z,91.55
2022-10-13T02:23:26.350Z,90.80
2022-10-13T02:26:30.810Z,90.22
2022-10-13T02:29:56.389Z,89.65
2022-10-13T02:33:03.390Z,90.01
2022-10-13T02:36:06.250Z,90.83
2022-10-13T02:39:11.360Z,89.77
2022-10-13T02:42:13.944Z,90.87
2022-10-13T02:45:16.327Z,91.01
2022-10-13T02:48:18.705Z,90.64
2022-10-13T02:51:21.152Z,90.49
2022-10-13T02:54:23.595Z,90.91
2022-10-13T02:57:26.550Z,89.63
2022-10-13T03:00:29.329Z,89.82
2022-10-13T03:03:31.631Z,90.03
2022-10-13T03:06:38.359Z,90.13
2022-10-13T03:09:41.237Z,88.80
2022-10-13T03:12:43.768Z,88.61
2022-10-13T03:15:48.611Z,88.23
2022-10-13T03:18:50.873Z,87.87
2022-10-13T03:21:53.327Z,89.05
2022-10-13T03:24:55.758Z,88.79
2022-10-13T03:27:58.215Z,88.10
2022-10-13T03:31:05.738Z,87.81
2022-10-13T03:34:12.219Z,88.22
2022-10-13T03:37:14.566Z,88.44
2022-10-13T03:40:17.950Z,89.38
2022-10-13T03:43:20.285Z,88.72
2022-10-13T03:46:25.729Z,88.88
2022-10-13T03:49:28.836Z,88.30
2022-10-13T03:52:33.797Z,88.72
2022-10-13T03:55:36.180Z,88.98
2022-10-13T03:58:38.541Z,90.23
2022-10-13T04:01:41.223Z,89.27
2022-10-13T04:04:43.795Z,88.70
2022-10-13T04:07:46.459Z,88.68
2022-10-13T04:11:12.994Z,89.12
2022-10-13T04:14:15.923Z,89.78
2022-10-13T04:17:18.422Z,89.78
2022-10-13T04:20:20.829Z,89.66
2022-10-13T04:23:23.562Z,89.53
2022-10-13T04:26:28.852Z,88.84
2022-10-13T04:29:32.697Z,89.06
2022-10-13T04:32:35.225Z,88.68
2022-10-13T04:35:42.345Z,89.12
2022-10-13T04:38:45.111Z,88.61
2022-10-13T04:41:47.690Z,89.35
2022-10-13T04:44:50.832Z,89.14
2022-10-13T04:47:56.578Z,88.36
2022-10-13T04:51:15.009Z,88.67
2022-10-13T04:54:17.530Z,89.34
2022-10-13T04:57:20.146Z,89.21
2022-10-13T05:00:22.293Z,89.92
2022-10-13T05:03:26.672Z,89.33
2022-10-13T05:06:33.716Z,88.71
2022-10-13T05:09:36.591Z,88.37
2022-10-13T05:12:46.765Z,88.60
2022-10-13T05:15:49.184Z,87.69
2022-10-13T05:18:56.000Z,87.90
2022-10-13T05:21:58.444Z,88.24
2022-10-13T05:25:01.046Z,88.88
2022-10-13T05:28:08.516Z,89.42
2022-10-13T05:31:21.826Z,88.34
2022-10-13T05:34:24.619Z,91.99
2022-10-13T05:37:27.174Z,92.67
2022-10-13T05:40:30.012Z,91.47
2022-10-13T05:43:37.669Z,90.47
2022-10-13T05:46:40.206Z,89.88
2022-10-13T05:49:42.713Z,89.10
2022-10-13T05:52:45.737Z,89.90
2022-10-13T05:55:48.149Z,89.51
2022-10-13T05:58:54.201Z,88.46
2022-10-13T06:01:56.842Z,88.94
2022-10-13T06:05:01.104Z,90.86
2022-10-13T06:08:03.926Z,90.33
2022-10-13T06:11:06.675Z,88.55
2022-10-13T06:14:09.592Z,87.92
2022-10-13T06:17:11.952Z,88.59
2022-10-13T06:20:18.479Z,88.54
2022-10-13T06:23:20.839Z,89.75
2022-10-13T06:26:23.717Z,88.68
2022-10-13T06:29:31.377Z,89.01
2022-10-13T06:32:34.201Z,87.78
2022-10-13T06:35:37.302Z,86.97
2022-10-13T06:38:39.751Z,88.03
2022-10-13T06:41:42.213Z,88.03
2022-10-13T06:44:45.326Z,88.21
2022-10-13T06:47:50.753Z,88.00
2022-10-13T06:50:53.901Z,86.84
2022-10-13T06:53:57.479Z,86.25
2022-10-13T06:57:05.176Z,85.07
2022-10-13T07:00:10.968Z,83.51
2022-10-13T07:03:14.241Z,82.30
2022-10-13T07:06:17.299Z,82.65
2022-10-13T07:09:21.316Z,81.55
2022-10-13T07:12:24.129Z,81.71
2022-10-13T07:15:27.197Z,80.82
2022-10-13T07:18:29.628Z,80.87
2022-10-13T07:21:37.244Z,81.28
2022-10-13T07:24:39.731Z,81.77
2022-10-13T07:27:42.696Z,81.75
2022-10-13T07:30:45.105Z,80.71
2022-10-13T07:33:49.859Z,80.15
2022-10-13T07:36:52.705Z,79.95
2022-10-13T07:39:55.716Z,79.72
2022-10-13T07:43:00.523Z,79.71
2022-10-13T07:46:07.488Z,79.31
2022-10-13T07:49:12.475Z,78.35
2022-10-13T07:52:18.485Z,77.77
2022-10-13T07:55:21.346Z,79.17
2022-10-13T07:58:26.706Z,77.10
2022-10-13T08:01:29.373Z,78.70
2022-10-13T08:04:36.031Z,77.75
2022-10-13T08:07:39.678Z,77.68
2022-10-13T08:10:42.148Z,77.84
2022-10-13T08:13:53.054Z,77.13
2022-10-13T08:16:58.822Z,77.31
2022-10-13T08:20:01.486Z,77.68
2022-10-13T08:23:07.163Z,78.75
2022-10-13T08:26:17.564Z,79.54
2022-10-13T08:29:22.641Z,78.37
2022-10-13T08:32:28.734Z,77.78
2022-10-13T08:35:34.936Z,77.76
2022-10-13T08:38:37.857Z,78.79
2022-10-13T08:41:44.391Z,78.11
2022-10-13T08:45:22.178Z,76.75
2022-10-13T08:48:25.635Z,75.25
2022-10-13T08:51:32.167Z,75.94
2022-10-13T08:54:36.118Z,75.29
2022-10-13T08:57:39.013Z,73.41
2022-10-13T09:00:42.829Z,74.34
2022-10-13T09:04:14.709Z,73.39
2022-10-13T09:07:27.667Z,73.61
2022-10-13T09:10:30.564Z,74.42
2022-10-13T09:13:34.896Z,73.20
2022-10-13T09:16:38.974Z,73.06
2022-10-13T09:19:46.938Z,73.35
2022-10-13T09:23:07.321Z,71.32
2022-10-13T09:26:17.337Z,72.33
2022-10-13T09:29:29.538Z,71.30
2022-10-13T09:32:35.966Z,71.82
2022-10-13T09:35:45.624Z,71.70
2022-10-13T09:39:06.965Z,70.20
2022-10-13T09:42:28.335Z,71.01
2022-10-13T09:45:33.796Z,71.55
2022-10-13T09:48:37.461Z,72.37
2022-10-13T09:51:42.900Z,72.43
2022-10-13T09:54:59.266Z,71.89
2022-10-13T09:58:17.451Z,71.69
2022-10-13T10:01:27.168Z,71.52
2022-10-13T10:04:37.082Z,70.04
2022-10-13T10:07:39.535Z,70.02
2022-10-13T10:10:45.171Z,71.15
2022-10-13T10:13:50.414Z,70.82
2022-10-13T10:17:02.107Z,70.08
2022-10-13T10:20:22.564Z,69.26
2022-10-13T10:23:49.735Z,68.48
2022-10-13T10:26:57.646Z,67.59
2022-10-13T10:30:06.711Z,66.90
2022-10-13T10:33:42.874Z,69.52
2022-10-13T10:37:01.316Z,68.89
2022-10-13T10:40:08.045Z,69.88
2022-10-13T10:43:45.905Z,67.48
2022-10-13T10:46:56.005Z,67.25
2022-10-13T10:50:07.698Z,67.78
2022-10-13T10:53:18.472Z,69.68
2022-10-13T10:56:39.996Z,67.51
2022-10-13T11:03:48.671Z,69.02
2022-10-13T11:06:51.553Z,69.03
2022-10-13T11:09:57.875Z,68.54
2022-10-13T11:13:00.298Z,68.15
2022-10-13T11:16:35.863Z,68.31
2022-10-13T11:19:41.104Z,68.82
2022-10-13T11:23:03.448Z,69.03
2022-10-13T11:26:33.608Z,67.29
2022-10-13T11:29:49.300Z,66.56
2022-10-13T11:32:57.825Z,68.43
2022-10-13T11:36:33.259Z,68.00
2022-10-13T11:39:42.821Z,67.79
2022-10-13T11:42:58.326Z,66.60
2022-10-13T11:46:26.375Z,68.71
2022-10-13T11:49:58.393Z,68.63
2022-10-13T11:53:01.420Z,68.53
2022-10-13T11:56:04.002Z,68.84
2022-10-13T11:59:17.950Z,69.25
2022-10-13T12:02:24.397Z,69.32
2022-10-13T12:05:29.221Z,69.31
2022-10-13T12:08:35.594Z,69.94
2022-10-13T12:11:38.407Z,69.49
2022-10-13T12:14:45.803Z,69.45
2022-10-13T12:17:50.525Z,68.97
2022-10-13T12:20:55.523Z,69.16
2022-10-13T12:24:08.983Z,67.60
2022-10-13T12:27:21.625Z,67.38
2022-10-13T12:30:30.538Z,69.28
2022-10-13T12:33:36.712Z,69.15
2022-10-13T12:36:41.483Z,69.41
2022-10-13T12:39:47.869Z,68.58
2022-10-13T12:42:52.121Z,69.68
2022-10-13T12:45:55.109Z,70.44
2022-10-13T12:49:08.624Z,69.48
2022-10-13T12:52:17.050Z,69.25
2022-10-13T12:55:21.179Z,67.89
2022-10-13T12:58:33.037Z,67.25
2022-10-13T13:01:35.840Z,67.15
2022-10-13T13:04:38.933Z,67.25
2022-10-13T13:07:41.648Z,67.91
2022-10-13T13:11:01.601Z,67.25
2022-10-13T13:14:36.130Z,67.72
2022-10-13T13:17:57.115Z,68.70
2022-10-13T13:21:02.750Z,67.46
2022-10-13T13:24:16.193Z,67.05
2022-10-13T13:27:41.434Z,66.70
2022-10-13T13:30:44.503Z,66.43
2022-10-13T13:33:48.133Z,66.99
2022-10-13T13:36:51.555Z,66.44
2022-10-13T13:39:54.338Z,67.24
2022-10-13T13:42:57.109Z,67.99
2022-10-13T13:46:07.885Z,67.46
2022-10-13T13:49:12.281Z,68.41
2022-10-13T13:52:15.486Z,67.47
2022-10-13T13:55:18.300Z,67.94
2022-10-13T13:58:21.435Z,68.08
2022-10-13T14:01:26.368Z,69.20
2022-10-13T14:04:29.340Z,69.38
2022-10-13T14:07:32.615Z,69.81
2022-10-13T14:10:36.286Z,70.03
2022-10-13T14:13:40.178Z,70.22
2022-10-13T14:16:43.516Z,70.95
2022-10-13T14:19:47.003Z,70.81
2022-10-13T14:22:53.219Z,70.98
2022-10-13T14:25:55.898Z,69.82
2022-10-13T14:28:59.958Z,70.51
2022-10-13T14:32:03.779Z,70.86
2022-10-13T14:35:08.244Z,70.94
2022-10-13T14:38:11.881Z,71.49
2022-10-13T14:41:20.954Z,71.93
2022-10-13T14:44:26.079Z,72.37
2022-10-13T14:47:29.960Z,72.79
2022-10-13T14:50:33.653Z,72.96
2022-10-13T14:53:41.702Z,72.94
2022-10-13T14:56:45.195Z,73.49
2022-10-13T14:59:48.323Z,73.15
2022-10-13T15:02:51.016Z,73.11
2022-10-13T15:05:57.376Z,73.08
2022-10-13T15:09:00.646Z,73.87
2022-10-13T15:12:03.512Z,74.17
2022-10-13T15:15:08.122Z,74.82
2022-10-13T15:18:10.871Z,75.32
2022-10-13T15:21:15.624Z,75.67
2022-10-13T15:24:18.994Z,76.41
2022-10-13T15:27:27.690Z,77.02
2022-10-13T15:30:36.287Z,77.24
2022-10-13T15:33:52.244Z,77.60
2022-10-13T15:36:56.096Z,77.64
2022-10-13T15:39:59.337Z,77.37
2022-10-13T15:43:02.573Z,77.83
2022-10-13T15:46:07.478Z,78.37
2022-10-13T15:49:10.165Z,78.62
2022-10-13T15:52:13.172Z,78.86
2022-10-13T15:55:15.471Z,78.40
2022-10-13T15:58:18.449Z,78.84
2022-10-13T16:01:21.186Z,78.63
2022-10-13T16:04:23.934Z,79.03
2022-10-13T16:07:26.525Z,79.70
2022-10-13T16:10:29.265Z,79.00
2022-10-13T16:13:31.800Z,79.68
2022-10-13T16:16:34.456Z,79.83
2022-10-13T16:19:37.624Z,79.01
2022-10-13T16:22:40.149Z,79.80
2022-10-13T16:25:48.302Z,80.13
2022-10-13T16:28:55.289Z,80.18
2022-10-13T16:32:01.647Z,79.62
2022-10-13T16:35:04.672Z,79.51
2022-10-13T16:38:08.013Z,79.27
2022-10-13T16:41:14.431Z,79.87
2022-10-13T16:44:17.599Z,79.57
2022-10-13T16:47:20.990Z,79.80
2022-10-13T16:50:25.270Z,79.55
2022-10-13T16:53:30.779Z,79.50
2022-10-13T16:56:34.352Z,79.41
2022-10-13T16:59:36.986Z,80.73
2022-10-13T17:02:39.960Z,80.98
2022-10-13T17:05:43.009Z,81.44
2022-10-13T17:08:45.960Z,81.10
2022-10-13T17:11:49.078Z,81.53
2022-10-13T17:14:51.599Z,80.05
2022-10-13T17:17:54.925Z,80.37
2022-10-13T17:21:00.203Z,80.79
2022-10-13T17:24:03.450Z,81.08
2022-10-13T17:27:07.590Z,80.41
2022-10-13T17:30:12.497Z,80.34
2022-10-13T17:33:15.737Z,80.40
2022-10-13T17:36:25.295Z,80.97
2022-10-13T17:39:28.504Z,80.84
2022-10-13T17:42:31.922Z,81.54
2022-10-13T17:45:38.708Z,81.73
2022-10-13T17:48:44.698Z,82.99
2022-10-13T17:51:51.138Z,83.08
2022-10-13T17:54:57.850Z,83.59
2022-10-13T17:58:04.516Z,84.07
2022-10-13T18:01:16.813Z,83.19
2022-10-13T18:04:21.332Z,83.60
2022-10-13T18:07:30.002Z,82.96
2022-10-13T18:11:03.518Z,84.02
2022-10-13T18:14:01.298Z,83.54
2022-10-13T18:17:05.319Z,83.23
2022-10-13T18:20:09.513Z,82.22
2022-10-13T18:23:34.469Z,82.27
2022-10-13T18:26:36.946Z,82.83
2022-10-13T18:29:39.823Z,82.74
2022-10-13T18:32:41.935Z,82.86
2022-10-13T18:35:45.545Z,82.59
2022-10-13T18:38:48.164Z,82.85
2022-10-13T18:41:51.027Z,83.38
2022-10-13T18:44:54.153Z,83.56
2022-10-13T18:47:57.406Z,82.87
2022-10-13T18:51:09.640Z,82.48
2022-10-13T18:54:13.051Z,83.00
2022-10-13T18:57:15.141Z,83.52
2022-10-13T19:00:18.377Z,83.22
2022-10-13T19:03:20.910Z,82.83
2022-10-13T19:06:29.703Z,83.48
2022-10-13T19:09:32.114Z,83.69
2022-10-13T19:12:35.374Z,83.14
2022-10-13T19:15:40.600Z,83.39
2022-10-13T19:18:43.258Z,83.73
2022-10-13T19:21:46.050Z,83.71
2022-10-13T19:24:48.927Z,85.54
2022-10-13T19:27:52.772Z,85.30
2022-10-13T19:30:58.783Z,84.49
2022-10-13T19:34:01.729Z,84.00
2022-10-13T19:37:05.527Z,83.57
2022-10-13T19:40:08.530Z,84.36
2022-10-13T19:43:11.357Z,84.39
2022-10-13T19:46:13.823Z,83.81
2022-10-13T19:49:18.544Z,83.68
2022-10-13T19:52:21.549Z,83.86
2022-10-13T19:55:26.934Z,83.56
2022-10-13T19:58:30.383Z,84.73
2022-10-13T20:01:33.343Z,84.62
2022-10-13T20:04:36.938Z,84.44
2022-10-13T20:07:39.090Z,84.43
2022-10-13T20:10:44.602Z,84.52
2022-10-13T20:13:47.893Z,84.93
2022-10-13T20:16:50.247Z,85.43
2022-10-13T20:19:52.778Z,84.87
2022-10-13T20:22:55.302Z,84.96
2022-10-13T20:26:05.268Z,84.85
2022-10-13T20:29:09.458Z,85.28
2022-10-13T20:32:11.423Z,84.94
2022-10-13T20:35:13.296Z,85.24
2022-10-13T20:38:15.490Z,86.02
2022-10-13T20:41:20.549Z,84.48
2022-10-13T20:44:22.740Z,84.66
2022-10-13T20:47:24.787Z,85.13
2022-10-13T20:50:28.881Z,85.90
2022-10-13T20:53:30.965Z,85.94
2022-10-13T20:56:33.057Z,85.39
2022-10-13T20:59:36.027Z,84.66
2022-10-13T21:02:38.022Z,85.18
2022-10-13T21:05:40.311Z,86.27
2022-10-13T21:08:45.348Z,86.73
2022-10-13T21:11:47.784Z,86.20
2022-10-13T21:14:49.594Z,87.16
2022-10-13T21:17:52.590Z,88.44
2022-10-13T21:20:54.571Z,87.89
2022-10-13T21:24:02.048Z,86.78
2022-10-13T21:27:04.014Z,87.70
2022-10-13T21:30:06.677Z,86.80
2022-10-13T21:33:08.679Z,86.17
2022-10-13T21:36:11.948Z,86.01
2022-10-13T21:39:14.300Z,87.08
2022-10-13T21:42:16.360Z,88.43
2022-10-13T21:45:18.797Z,88.62
2022-10-13T21:48:21.048Z,86.25
2022-10-13T21:51:29.804Z,87.03
2022-10-13T21:54:31.722Z,87.23
2022-10-13T21:57:33.710Z,87.28
2022-10-13T22:00:35.907Z,86.42
2022-10-13T22:03:38.096Z,86.42
2022-10-13T22:06:40.923Z,86.30
2022-10-13T22:09:42.824Z,86.84
2022-10-13T22:12:44.641Z,86.13
2022-10-13T22:15:46.487Z,87.78
2022-10-13T22:18:55.294Z,88.96
2022-10-13T22:21:57.346Z,87.92
2022-10-13T22:25:01.559Z,87.58
2022-10-13T22:28:07.107Z,87.73
2022-10-13T22:31:12.195Z,87.57
2022-10-13T22:34:14.662Z,87.06
2022-10-13T22:37:17.062Z,86.79
2022-10-13T22:40:19.639Z,86.55
2022-10-13T22:43:21.451Z,87.36
2022-10-13T22:46:26.645Z,87.63
2022-10-13T22:49:28.419Z,86.88
2022-10-13T22:52:30.379Z,86.54
2022-10-13T22:55:32.087Z,86.37
2022-10-13T22:58:33.947Z,86.05
2022-10-13T23:01:36.968Z,87.11
2022-10-13T23:04:38.749Z,87.02
2022-10-13T23:07:40.489Z,87.58
2022-10-13T23:10:43.460Z,86.74
2022-10-13T23:13:45.638Z,87.25
2022-10-13T23:16:48.551Z,88.46
2022-10-13T23:19:50.711Z,86.82
2022-10-13T23:22:52.461Z,86.40
2022-10-13T23:25:54.318Z,86.54
2022-10-13T23:28:57.272Z,85.88
2022-10-13T23:31:59.807Z,87.13
2022-10-13T23:35:01.754Z,87.11
2022-10-13T23:38:07.857Z,87.40
2022-10-13T23:41:13.050Z,88.81
2022-10-13T23:44:15.644Z,87.50
2022-10-13T23:47:19.014Z,87.78
2022-10-13T23:50:20.987Z,88.78
2022-10-13T23:53:23.643Z,88.31
2022-10-13T23:56:25.411Z,88.81
2022-10-13T23:59:27.619Z,89.18
